Florence Regional Airport
KFLO : now visible

Airfield :











YOU CAN JOIN US ON...

 
LOGIN :

Register | Disclaimer

   EN    FR    IT 

 









Legend :    VFR   Marginal VFR   IFR   Intensive IFR   Very Intensive IFR
Visi :
Ceiling :
>= 8 km
>= 3000ft
5 to 8 km
1000 to 3000 ft
1500m to 5 km
500 to 1000 ft
800 to 1500m
200 to 500 ft
< 800m
< 200 ft
Symbols :   Thunderstorms  Fog  Heavy snow  Heavy precipitations  Wind > 20 kt







- Airport Elevation : 146 ft
- IATA code : FLO


KFLO - Florence Regional

CURRENT METAR :
  • 212053Z 18004KT 10SM CLR 29/13 A3021 RMK AO2 SLP228 T02890133 56020

EXPIRED METARs :
  • 211953Z 15009KT 10SM CLR 29/14 A3023 RMK AO2 SLP232 T02940144
  • 211853Z VRB03KT 10SM CLR 28/14 A3025 RMK AO2 SLP241 T02830139

TAF KFLO
Valid from the 21 at 18:00 until the 22 at 18:00 UTC


211720Z 2118/2218 VRB05KT P6SM SKC
FM212300 00000KT P6SM SKC
TEMPO 2208/2212 2SM BR
FM221500 23004KT P6SM FEW250
No reported NOTAMs for that airfield.



MET'MAP, your aeronautical weather chart ! - Copyright ORBIFLY December 2007 - Disclaimer

ORBIFLY MET'MAP TEAM :

Programming & Development : Alexandra Zaïnal
Concept & Development : Baudouin d'Aumeries
Co-Development & Prog : Marc-Olivier Méhu
Technical & hardware support : Manuel Goepfert

Contact : metmap@orbifly.com




SOURCES & CREDITS :

   NOAA       Earth
Advisory